sensor_id;sensor_type;location;lat;lon;timestamp;temperature;humidity
37786;DHT22;23625;48.784;9.336;2022-08-06T00:00:29;20.40;99.90
37786;DHT22;23625;48.784;9.336;2022-08-06T00:02:54;20.40;99.90
37786;DHT22;23625;48.784;9.336;2022-08-06T00:05:20;20.40;99.90
37786;DHT22;23625;48.784;9.336;2022-08-06T00:07:45;20.30;99.90
37786;DHT22;23625;48.784;9.336;2022-08-06T00:10:12;20.30;99.90
37786;DHT22;23625;48.784;9.336;2022-08-06T00:12:38;20.30;99.90
37786;DHT22;23625;48.784;9.336;2022-08-06T00:15:04;20.30;99.90
37786;DHT22;23625;48.784;9.336;2022-08-06T00:17:30;20.30;99.90
37786;DHT22;23625;48.784;9.336;2022-08-06T00:19:56;20.30;99.90
37786;DHT22;23625;48.784;9.336;2022-08-06T00:22:22;20.30;99.90
37786;DHT22;23625;48.784;9.336;2022-08-06T00:24:47;20.30;99.90
37786;DHT22;23625;48.784;9.336;2022-08-06T00:27:13;20.40;99.90
37786;DHT22;23625;48.784;9.336;2022-08-06T00:29:38;20.40;99.90
37786;DHT22;23625;48.784;9.336;2022-08-06T00:32:04;20.40;99.90
37786;DHT22;23625;48.784;9.336;2022-08-06T00:34:30;20.40;99.90
37786;DHT22;23625;48.784;9.336;2022-08-06T00:36:56;20.40;99.90
37786;DHT22;23625;48.784;9.336;2022-08-06T00:39:21;20.40;99.90
37786;DHT22;23625;48.784;9.336;2022-08-06T00:41:47;20.40;99.90
37786;DHT22;23625;48.784;9.336;2022-08-06T00:44:13;20.30;99.90
37786;DHT22;23625;48.784;9.336;2022-08-06T00:46:39;20.20;99.90
37786;DHT22;23625;48.784;9.336;2022-08-06T00:49:04;20.20;99.90
37786;DHT22;23625;48.784;9.336;2022-08-06T00:51:30;20.10;99.90
37786;DHT22;23625;48.784;9.336;2022-08-06T00:53:56;20.10;99.90
37786;DHT22;23625;48.784;9.336;2022-08-06T00:56:21;20.10;99.90
37786;DHT22;23625;48.784;9.336;2022-08-06T00:58:47;20.10;99.90
37786;DHT22;23625;48.784;9.336;2022-08-06T01:01:13;20.10;99.90
37786;DHT22;23625;48.784;9.336;2022-08-06T01:03:38;20.10;99.90
37786;DHT22;23625;48.784;9.336;2022-08-06T01:06:04;20.10;99.90
37786;DHT22;23625;48.784;9.336;2022-08-06T01:08:30;20.10;99.90
37786;DHT22;23625;48.784;9.336;2022-08-06T01:10:55;20.10;99.90
37786;DHT22;23625;48.784;9.336;2022-08-06T01:13:21;20.10;99.90
37786;DHT22;23625;48.784;9.336;2022-08-06T01:15:56;20.10;99.90
37786;DHT22;23625;48.784;9.336;2022-08-06T01:18:29;20.10;99.90
37786;DHT22;23625;48.784;9.336;2022-08-06T01:21:18;20.00;99.90
37786;DHT22;23625;48.784;9.336;2022-08-06T01:29:37;20.10;97.60
37786;DHT22;23625;48.784;9.336;2022-08-06T01:32:23;20.00;97.60
37786;DHT22;23625;48.784;9.336;2022-08-06T01:34:54;20.00;95.80
37786;DHT22;23625;48.784;9.336;2022-08-06T01:37:34;20.00;94.80
37786;DHT22;23625;48.784;9.336;2022-08-06T01:40:04;19.90;93.70
37786;DHT22;23625;48.784;9.336;2022-08-06T01:42:32;19.80;94.20
37786;DHT22;23625;48.784;9.336;2022-08-06T01:45:00;19.80;94.50
37786;DHT22;23625;48.784;9.336;2022-08-06T01:47:28;19.90;92.50
37786;DHT22;23625;48.784;9.336;2022-08-06T01:49:59;19.80;93.40
37786;DHT22;23625;48.784;9.336;2022-08-06T01:52:33;19.80;93.70
37786;DHT22;23625;48.784;9.336;2022-08-06T01:55:00;19.80;93.50
37786;DHT22;23625;48.784;9.336;2022-08-06T01:57:29;19.80;92.50
37786;DHT22;23625;48.784;9.336;2022-08-06T01:59:58;19.70;93.40
37786;DHT22;23625;48.784;9.336;2022-08-06T02:02:26;19.70;93.40
37786;DHT22;23625;48.784;9.336;2022-08-06T02:04:55;19.70;93.90
37786;DHT22;23625;48.784;9.336;2022-08-06T02:07:24;19.70;94.40
37786;DHT22;23625;48.784;9.336;2022-08-06T02:09:53;19.60;93.50
37786;DHT22;23625;48.784;9.336;2022-08-06T02:12:22;19.70;94.50
37786;DHT22;23625;48.784;9.336;2022-08-06T02:14:55;19.60;94.50
37786;DHT22;23625;48.784;9.336;2022-08-06T02:17:25;19.70;93.80
37786;DHT22;23625;48.784;9.336;2022-08-06T02:19:52;19.60;93.10
37786;DHT22;23625;48.784;9.336;2022-08-06T02:22:19;19.60;93.40
37786;DHT22;23625;48.784;9.336;2022-08-06T02:24:46;19.50;94.70
37786;DHT22;23625;48.784;9.336;2022-08-06T02:27:13;19.50;95.10
37786;DHT22;23625;48.784;9.336;2022-08-06T02:29:41;19.50;95.30
37786;DHT22;23625;48.784;9.336;2022-08-06T02:32:08;19.50;95.40
37786;DHT22;23625;48.784;9.336;2022-08-06T02:34:36;19.50;95.30
37786;DHT22;23625;48.784;9.336;2022-08-06T02:37:07;19.50;95.40
37786;DHT22;23625;48.784;9.336;2022-08-06T02:39:41;19.50;95.60
37786;DHT22;23625;48.784;9.336;2022-08-06T02:42:14;19.40;95.50
37786;DHT22;23625;48.784;9.336;2022-08-06T02:47:27;19.40;95.10
37786;DHT22;23625;48.784;9.336;2022-08-06T02:49:58;19.30;95.70
37786;DHT22;23625;48.784;9.336;2022-08-06T02:52:38;19.30;95.30
37786;DHT22;23625;48.784;9.336;2022-08-06T02:55:12;19.20;95.60
37786;DHT22;23625;48.784;9.336;2022-08-06T02:58:31;19.20;95.80
37786;DHT22;23625;48.784;9.336;2022-08-06T03:00:38;19.20;96.10
37786;DHT22;23625;48.784;9.336;2022-08-06T03:03:05;19.10;96.90
37786;DHT22;23625;48.784;9.336;2022-08-06T03:05:32;19.10;96.70
37786;DHT22;23625;48.784;9.336;2022-08-06T03:08:01;19.00;96.30
37786;DHT22;23625;48.784;9.336;2022-08-06T03:10:28;19.10;95.90
37786;DHT22;23625;48.784;9.336;2022-08-06T03:12:55;19.10;96.70
37786;DHT22;23625;48.784;9.336;2022-08-06T03:15:23;19.10;96.70
37786;DHT22;23625;48.784;9.336;2022-08-06T03:17:50;19.10;96.90
37786;DHT22;23625;48.784;9.336;2022-08-06T03:20:19;19.10;97.10
37786;DHT22;23625;48.784;9.336;2022-08-06T03:22:48;19.00;97.60
37786;DHT22;23625;48.784;9.336;2022-08-06T03:25:16;19.10;97.90
37786;DHT22;23625;48.784;9.336;2022-08-06T03:27:43;19.00;97.80
37786;DHT22;23625;48.784;9.336;2022-08-06T03:30:14;18.90;98.60
37786;DHT22;23625;48.784;9.336;2022-08-06T03:32:41;18.90;98.00
37786;DHT22;23625;48.784;9.336;2022-08-06T03:35:07;18.90;97.80
37786;DHT22;23625;48.784;9.336;2022-08-06T03:37:34;18.90;98.10
37786;DHT22;23625;48.784;9.336;2022-08-06T03:40:00;18.80;98.60
37786;DHT22;23625;48.784;9.336;2022-08-06T03:42:27;18.80;98.80
37786;DHT22;23625;48.784;9.336;2022-08-06T03:44:53;18.80;99.30
37786;DHT22;23625;48.784;9.336;2022-08-06T03:47:24;18.80;99.20
37786;DHT22;23625;48.784;9.336;2022-08-06T03:50:12;18.80;99.20
37786;DHT22;23625;48.784;9.336;2022-08-06T03:52:41;18.80;99.20
37786;DHT22;23625;48.784;9.336;2022-08-06T03:55:14;18.80;99.40
37786;DHT22;23625;48.784;9.336;2022-08-06T03:57:41;18.80;99.10
37786;DHT22;23625;48.784;9.336;2022-08-06T04:00:10;18.80;99.20
37786;DHT22;23625;48.784;9.336;2022-08-06T04:02:44;18.80;99.70
37786;DHT22;23625;48.784;9.336;2022-08-06T04:05:14;18.80;99.90
37786;DHT22;23625;48.784;9.336;2022-08-06T04:07:41;18.70;99.90
37786;DHT22;23625;48.784;9.336;2022-08-06T04:10:07;18.70;99.90
37786;DHT22;23625;48.784;9.336;2022-08-06T04:12:33;18.70;99.90
37786;DHT22;23625;48.784;9.336;2022-08-06T04:14:59;18.80;99.90
37786;DHT22;23625;48.784;9.336;2022-08-06T04:17:26;18.60;99.90
37786;DHT22;23625;48.784;9.336;2022-08-06T04:19:53;18.50;99.90
37786;DHT22;23625;48.784;9.336;2022-08-06T04:22:20;18.50;99.90
37786;DHT22;23625;48.784;9.336;2022-08-06T04:24:46;18.50;99.90
37786;DHT22;23625;48.784;9.336;2022-08-06T04:27:13;18.40;99.90
37786;DHT22;23625;48.784;9.336;2022-08-06T04:29:40;18.50;99.90
37786;DHT22;23625;48.784;9.336;2022-08-06T04:32:06;18.50;99.90
37786;DHT22;23625;48.784;9.336;2022-08-06T04:34:35;18.50;99.90
37786;DHT22;23625;48.784;9.336;2022-08-06T04:37:01;18.40;99.90
37786;DHT22;23625;48.784;9.336;2022-08-06T04:39:28;18.50;99.90
37786;DHT22;23625;48.784;9.336;2022-08-06T04:41:54;18.40;99.90
37786;DHT22;23625;48.784;9.336;2022-08-06T04:44:23;18.50;99.90
37786;DHT22;23625;48.784;9.336;2022-08-06T04:46:50;18.50;99.90
37786;DHT22;23625;48.784;9.336;2022-08-06T04:49:16;18.60;99.90
37786;DHT22;23625;48.784;9.336;2022-08-06T04:51:46;18.70;99.90
37786;DHT22;23625;48.784;9.336;2022-08-06T04:54:13;18.60;99.90
37786;DHT22;23625;48.784;9.336;2022-08-06T04:56:39;18.60;99.90
37786;DHT22;23625;48.784;9.336;2022-08-06T04:59:08;18.60;99.90
37786;DHT22;23625;48.784;9.336;2022-08-06T05:01:36;18.60;99.90
37786;DHT22;23625;48.784;9.336;2022-08-06T05:04:01;18.60;99.90
37786;DHT22;23625;48.784;9.336;2022-08-06T05:09:13;18.50;99.90
37786;DHT22;23625;48.784;9.336;2022-08-06T05:11:42;18.50;99.90
37786;DHT22;23625;48.784;9.336;2022-08-06T05:14:14;18.50;99.90
37786;DHT22;23625;48.784;9.336;2022-08-06T05:16:44;18.50;99.90
37786;DHT22;23625;48.784;9.336;2022-08-06T05:19:16;18.50;99.90
37786;DHT22;23625;48.784;9.336;2022-08-06T05:21:43;18.50;99.90
37786;DHT22;23625;48.784;9.336;2022-08-06T05:24:11;18.50;99.90
37786;DHT22;23625;48.784;9.336;2022-08-06T05:26:36;18.50;99.90
37786;DHT22;23625;48.784;9.336;2022-08-06T05:29:02;18.50;99.90
37786;DHT22;23625;48.784;9.336;2022-08-06T05:31:29;18.60;99.90
37786;DHT22;23625;48.784;9.336;2022-08-06T05:33:55;18.60;99.90
37786;DHT22;23625;48.784;9.336;2022-08-06T05:36:21;18.70;99.90
37786;DHT22;23625;48.784;9.336;2022-08-06T05:38:47;18.80;99.90
37786;DHT22;23625;48.784;9.336;2022-08-06T05:41:12;18.80;99.90
37786;DHT22;23625;48.784;9.336;2022-08-06T05:43:39;18.80;99.90
37786;DHT22;23625;48.784;9.336;2022-08-06T05:46:08;18.80;99.90
37786;DHT22;23625;48.784;9.336;2022-08-06T05:48:41;18.90;99.70
37786;DHT22;23625;48.784;9.336;2022-08-06T05:51:15;18.80;99.90
37786;DHT22;23625;48.784;9.336;2022-08-06T05:53:48;18.80;99.90
37786;DHT22;23625;48.784;9.336;2022-08-06T05:56:23;18.80;99.90
37786;DHT22;23625;48.784;9.336;2022-08-06T05:58:55;18.80;99.90
37786;DHT22;23625;48.784;9.336;2022-08-06T06:01:21;18.80;99.90
37786;DHT22;23625;48.784;9.336;2022-08-06T06:03:48;18.90;99.90
37786;DHT22;23625;48.784;9.336;2022-08-06T06:06:14;18.80;99.90
37786;DHT22;23625;48.784;9.336;2022-08-06T06:08:40;18.90;99.90
37786;DHT22;23625;48.784;9.336;2022-08-06T06:11:08;18.90;99.90
37786;DHT22;23625;48.784;9.336;2022-08-06T06:13:35;19.00;99.90
37786;DHT22;23625;48.784;9.336;2022-08-06T06:19:33;19.00;99.90
37786;DHT22;23625;48.784;9.336;2022-08-06T06:24:31;19.10;99.90
37786;DHT22;23625;48.784;9.336;2022-08-06T06:27:05;19.10;99.90
37786;DHT22;23625;48.784;9.336;2022-08-06T06:35:18;19.20;99.40
37786;DHT22;23625;48.784;9.336;2022-08-06T06:43:09;19.40;99.90
37786;DHT22;23625;48.784;9.336;2022-08-06T06:46:01;19.50;99.60
37786;DHT22;23625;48.784;9.336;2022-08-06T06:48:52;19.50;98.80
37786;DHT22;23625;48.784;9.336;2022-08-06T06:51:27;19.60;99.70
37786;DHT22;23625;48.784;9.336;2022-08-06T06:53:56;19.70;99.00
37786;DHT22;23625;48.784;9.336;2022-08-06T06:56:25;19.70;99.00
37786;DHT22;23625;48.784;9.336;2022-08-06T06:59:00;19.70;98.70
37786;DHT22;23625;48.784;9.336;2022-08-06T07:01:28;19.80;98.80
37786;DHT22;23625;48.784;9.336;2022-08-06T07:03:57;19.90;97.70
37786;DHT22;23625;48.784;9.336;2022-08-06T07:06:25;19.80;97.30
37786;DHT22;23625;48.784;9.336;2022-08-06T07:08:52;19.90;98.10
37786;DHT22;23625;48.784;9.336;2022-08-06T07:11:22;19.90;98.10
37786;DHT22;23625;48.784;9.336;2022-08-06T07:13:49;19.90;97.70
37786;DHT22;23625;48.784;9.336;2022-08-06T07:16:21;20.00;97.80
37786;DHT22;23625;48.784;9.336;2022-08-06T07:18:47;20.10;97.80
37786;DHT22;23625;48.784;9.336;2022-08-06T07:21:15;20.30;96.40
37786;DHT22;23625;48.784;9.336;2022-08-06T07:23:43;20.40;96.00
37786;DHT22;23625;48.784;9.336;2022-08-06T07:26:12;20.50;95.20
37786;DHT22;23625;48.784;9.336;2022-08-06T07:28:39;20.50;94.00
37786;DHT22;23625;48.784;9.336;2022-08-06T07:31:06;20.40;95.90
37786;DHT22;23625;48.784;9.336;2022-08-06T07:33:34;20.30;94.40
37786;DHT22;23625;48.784;9.336;2022-08-06T07:36:00;20.30;94.30
37786;DHT22;23625;48.784;9.336;2022-08-06T07:38:27;20.20;96.00
37786;DHT22;23625;48.784;9.336;2022-08-06T07:41:01;20.20;96.30
37786;DHT22;23625;48.784;9.336;2022-08-06T07:43:31;20.30;96.00
37786;DHT22;23625;48.784;9.336;2022-08-06T07:46:01;20.30;97.00
37786;DHT22;23625;48.784;9.336;2022-08-06T07:49:06;20.30;96.20
37786;DHT22;23625;48.784;9.336;2022-08-06T07:51:30;20.20;95.40
37786;DHT22;23625;48.784;9.336;2022-08-06T07:53:57;20.20;95.60
37786;DHT22;23625;48.784;9.336;2022-08-06T07:56:25;20.20;94.60
37786;DHT22;23625;48.784;9.336;2022-08-06T07:58:51;20.10;96.70
37786;DHT22;23625;48.784;9.336;2022-08-06T08:01:18;20.10;96.50
37786;DHT22;23625;48.784;9.336;2022-08-06T08:03:45;20.10;96.50
37786;DHT22;23625;48.784;9.336;2022-08-06T08:06:30;20.10;96.50
37786;DHT22;23625;48.784;9.336;2022-08-06T08:09:03;20.30;95.80
37786;DHT22;23625;48.784;9.336;2022-08-06T08:11:30;20.20;95.00
37786;DHT22;23625;48.784;9.336;2022-08-06T08:13:57;20.20;95.00
37786;DHT22;23625;48.784;9.336;2022-08-06T08:16:25;20.20;95.30
37786;DHT22;23625;48.784;9.336;2022-08-06T08:18:52;20.40;95.10
37786;DHT22;23625;48.784;9.336;2022-08-06T08:21:18;20.40;93.80
37786;DHT22;23625;48.784;9.336;2022-08-06T08:23:46;20.60;94.10
37786;DHT22;23625;48.784;9.336;2022-08-06T08:26:12;20.70;92.60
37786;DHT22;23625;48.784;9.336;2022-08-06T08:28:38;20.80;91.50
37786;DHT22;23625;48.784;9.336;2022-08-06T08:31:04;21.10;91.90
37786;DHT22;23625;48.784;9.336;2022-08-06T08:33:32;21.30;89.40
37786;DHT22;23625;48.784;9.336;2022-08-06T08:35:58;21.60;89.30
37786;DHT22;23625;48.784;9.336;2022-08-06T08:38:24;21.70;86.50
37786;DHT22;23625;48.784;9.336;2022-08-06T08:40:51;21.80;85.90
37786;DHT22;23625;48.784;9.336;2022-08-06T08:43:21;21.60;83.20
37786;DHT22;23625;48.784;9.336;2022-08-06T08:45:48;21.50;85.00
37786;DHT22;23625;48.784;9.336;2022-08-06T08:48:20;21.50;84.40
37786;DHT22;23625;48.784;9.336;2022-08-06T08:50:49;21.70;82.00
37786;DHT22;23625;48.784;9.336;2022-08-06T08:53:26;21.90;81.80
37786;DHT22;23625;48.784;9.336;2022-08-06T08:55:54;22.00;79.20
37786;DHT22;23625;48.784;9.336;2022-08-06T08:58:20;22.00;78.10
37786;DHT22;23625;48.784;9.336;2022-08-06T09:00:46;22.10;74.90
37786;DHT22;23625;48.784;9.336;2022-08-06T09:03:12;22.00;78.40
37786;DHT22;23625;48.784;9.336;2022-08-06T09:05:38;22.00;77.20
37786;DHT22;23625;48.784;9.336;2022-08-06T09:08:05;22.00;76.20
37786;DHT22;23625;48.784;9.336;2022-08-06T09:10:31;22.20;71.80
37786;DHT22;23625;48.784;9.336;2022-08-06T09:12:56;22.30;70.70
37786;DHT22;23625;48.784;9.336;2022-08-06T09:15:22;22.50;72.80
37786;DHT22;23625;48.784;9.336;2022-08-06T09:17:48;22.60;69.30
37786;DHT22;23625;48.784;9.336;2022-08-06T09:20:14;22.80;71.50
37786;DHT22;23625;48.784;9.336;2022-08-06T09:22:41;23.10;68.80
37786;DHT22;23625;48.784;9.336;2022-08-06T09:28:26;22.80;66.70
37786;DHT22;23625;48.784;9.336;2022-08-06T09:31:18;22.60;67.70
37786;DHT22;23625;48.784;9.336;2022-08-06T09:33:59;22.60;66.60
37786;DHT22;23625;48.784;9.336;2022-08-06T09:36:24;22.40;66.20
37786;DHT22;23625;48.784;9.336;2022-08-06T09:38:56;22.30;68.20
37786;DHT22;23625;48.784;9.336;2022-08-06T09:41:24;22.40;68.70
37786;DHT22;23625;48.784;9.336;2022-08-06T09:43:52;22.70;67.00
37786;DHT22;23625;48.784;9.336;2022-08-06T09:46:47;23.20;65.30
37786;DHT22;23625;48.784;9.336;2022-08-06T09:49:14;23.50;63.00
37786;DHT22;23625;48.784;9.336;2022-08-06T09:51:41;23.50;63.10
37786;DHT22;23625;48.784;9.336;2022-08-06T09:54:09;23.50;62.00
37786;DHT22;23625;48.784;9.336;2022-08-06T09:56:44;23.50;62.20
37786;DHT22;23625;48.784;9.336;2022-08-06T09:59:11;23.40;62.80
37786;DHT22;23625;48.784;9.336;2022-08-06T10:01:45;23.30;63.00
37786;DHT22;23625;48.784;9.336;2022-08-06T10:04:27;23.10;62.80
37786;DHT22;23625;48.784;9.336;2022-08-06T10:06:53;23.10;63.50
37786;DHT22;23625;48.784;9.336;2022-08-06T10:09:19;23.00;63.30
37786;DHT22;23625;48.784;9.336;2022-08-06T10:11:44;23.10;63.20
37786;DHT22;23625;48.784;9.336;2022-08-06T10:19:33;23.30;60.60
37786;DHT22;23625;48.784;9.336;2022-08-06T10:22:10;23.30;59.80
37786;DHT22;23625;48.784;9.336;2022-08-06T10:24:46;23.30;60.40
37786;DHT22;23625;48.784;9.336;2022-08-06T10:27:16;23.20;59.90
37786;DHT22;23625;48.784;9.336;2022-08-06T10:29:52;23.20;60.70
37786;DHT22;23625;48.784;9.336;2022-08-06T10:32:29;23.10;61.30
37786;DHT22;23625;48.784;9.336;2022-08-06T10:34:57;23.00;62.60
37786;DHT22;23625;48.784;9.336;2022-08-06T10:37:25;23.00;61.40
37786;DHT22;23625;48.784;9.336;2022-08-06T10:39:59;23.00;61.80
37786;DHT22;23625;48.784;9.336;2022-08-06T10:42:26;23.10;62.20
37786;DHT22;23625;48.784;9.336;2022-08-06T10:44:52;23.20;62.10
37786;DHT22;23625;48.784;9.336;2022-08-06T10:47:18;23.20;61.10
37786;DHT22;23625;48.784;9.336;2022-08-06T10:49:45;23.30;61.50
37786;DHT22;23625;48.784;9.336;2022-08-06T10:52:11;23.30;59.90
37786;DHT22;23625;48.784;9.336;2022-08-06T10:54:39;23.40;60.00
37786;DHT22;23625;48.784;9.336;2022-08-06T10:57:07;23.40;59.60
37786;DHT22;23625;48.784;9.336;2022-08-06T10:59:34;23.50;58.50
37786;DHT22;23625;48.784;9.336;2022-08-06T11:04:48;23.50;59.00
37786;DHT22;23625;48.784;9.336;2022-08-06T11:16:06;23.80;58.40
37786;DHT22;23625;48.784;9.336;2022-08-06T11:18:31;24.10;56.90
37786;DHT22;23625;48.784;9.336;2022-08-06T11:20:57;24.40;55.80
37786;DHT22;23625;48.784;9.336;2022-08-06T11:23:30;24.40;55.40
37786;DHT22;23625;48.784;9.336;2022-08-06T11:25:58;24.60;55.60
37786;DHT22;23625;48.784;9.336;2022-08-06T11:30:54;24.70;54.10
37786;DHT22;23625;48.784;9.336;2022-08-06T11:36:09;25.00;54.00
37786;DHT22;23625;48.784;9.336;2022-08-06T11:46:24;25.80;51.90
37786;DHT22;23625;48.784;9.336;2022-08-06T11:51:44;25.50;51.40
37786;DHT22;23625;48.784;9.336;2022-08-06T11:54:23;25.40;51.90
37786;DHT22;23625;48.784;9.336;2022-08-06T12:07:41;25.30;52.40
37786;DHT22;23625;48.784;9.336;2022-08-06T12:10:11;25.30;52.00
37786;DHT22;23625;48.784;9.336;2022-08-06T12:12:45;25.00;52.70
37786;DHT22;23625;48.784;9.336;2022-08-06T12:18:19;25.60;52.80
37786;DHT22;23625;48.784;9.336;2022-08-06T12:20:40;25.80;52.60
37786;DHT22;23625;48.784;9.336;2022-08-06T12:23:11;26.00;50.60
37786;DHT22;23625;48.784;9.336;2022-08-06T12:25:45;25.90;51.10
37786;DHT22;23625;48.784;9.336;2022-08-06T12:28:14;26.00;50.80
37786;DHT22;23625;48.784;9.336;2022-08-06T12:30:41;25.90;51.10
37786;DHT22;23625;48.784;9.336;2022-08-06T12:33:08;26.20;50.10
37786;DHT22;23625;48.784;9.336;2022-08-06T12:35:35;26.00;50.20
37786;DHT22;23625;48.784;9.336;2022-08-06T12:38:01;25.90;50.20
37786;DHT22;23625;48.784;9.336;2022-08-06T12:40:27;25.70;51.00
37786;DHT22;23625;48.784;9.336;2022-08-06T12:43:07;26.00;51.70
37786;DHT22;23625;48.784;9.336;2022-08-06T12:45:33;26.20;50.30
37786;DHT22;23625;48.784;9.336;2022-08-06T12:48:10;26.10;50.10
37786;DHT22;23625;48.784;9.336;2022-08-06T12:50:40;26.10;50.40
37786;DHT22;23625;48.784;9.336;2022-08-06T12:53:11;26.40;50.10
37786;DHT22;23625;48.784;9.336;2022-08-06T12:55:54;26.80;50.00
37786;DHT22;23625;48.784;9.336;2022-08-06T12:58:26;27.10;48.50
37786;DHT22;23625;48.784;9.336;2022-08-06T13:00:56;27.30;47.80
37786;DHT22;23625;48.784;9.336;2022-08-06T13:03:24;27.30;46.90
37786;DHT22;23625;48.784;9.336;2022-08-06T13:05:54;27.30;47.70
37786;DHT22;23625;48.784;9.336;2022-08-06T13:08:20;27.40;46.90
37786;DHT22;23625;48.784;9.336;2022-08-06T13:10:54;27.60;46.30
37786;DHT22;23625;48.784;9.336;2022-08-06T13:13:20;27.50;46.70
37786;DHT22;23625;48.784;9.336;2022-08-06T13:16:04;27.60;47.10
37786;DHT22;23625;48.784;9.336;2022-08-06T13:18:30;27.80;46.70
37786;DHT22;23625;48.784;9.336;2022-08-06T13:20:56;27.90;46.50
37786;DHT22;23625;48.784;9.336;2022-08-06T13:23:37;28.10;46.10
37786;DHT22;23625;48.784;9.336;2022-08-06T13:26:26;28.20;45.50
37786;DHT22;23625;48.784;9.336;2022-08-06T13:29:14;28.40;45.50
37786;DHT22;23625;48.784;9.336;2022-08-06T13:31:41;28.50;44.90
37786;DHT22;23625;48.784;9.336;2022-08-06T13:34:10;28.50;44.60
37786;DHT22;23625;48.784;9.336;2022-08-06T13:36:37;28.50;44.60
37786;DHT22;23625;48.784;9.336;2022-08-06T13:39:24;28.40;44.40
37786;DHT22;23625;48.784;9.336;2022-08-06T13:42:07;28.60;44.80
37786;DHT22;23625;48.784;9.336;2022-08-06T13:44:38;28.80;44.60
37786;DHT22;23625;48.784;9.336;2022-08-06T13:47:08;29.00;44.10
37786;DHT22;23625;48.784;9.336;2022-08-06T13:49:34;29.00;43.80
37786;DHT22;23625;48.784;9.336;2022-08-06T13:52:01;29.00;43.10
37786;DHT22;23625;48.784;9.336;2022-08-06T13:54:27;28.90;43.10
37786;DHT22;23625;48.784;9.336;2022-08-06T13:56:54;28.90;43.50
37786;DHT22;23625;48.784;9.336;2022-08-06T13:59:21;29.00;43.10
37786;DHT22;23625;48.784;9.336;2022-08-06T14:01:48;28.80;43.20
37786;DHT22;23625;48.784;9.336;2022-08-06T14:04:16;28.90;43.50
37786;DHT22;23625;48.784;9.336;2022-08-06T14:06:48;28.70;42.80
37786;DHT22;23625;48.784;9.336;2022-08-06T14:09:15;28.60;43.80
37786;DHT22;23625;48.784;9.336;2022-08-06T14:11:41;28.70;43.70
37786;DHT22;23625;48.784;9.336;2022-08-06T14:14:07;28.80;43.20
37786;DHT22;23625;48.784;9.336;2022-08-06T14:16:34;28.90;43.10
37786;DHT22;23625;48.784;9.336;2022-08-06T14:18:59;29.10;42.50
37786;DHT22;23625;48.784;9.336;2022-08-06T14:21:25;29.00;42.70
37786;DHT22;23625;48.784;9.336;2022-08-06T14:23:51;28.90;43.20
37786;DHT22;23625;48.784;9.336;2022-08-06T14:26:16;28.90;43.20
37786;DHT22;23625;48.784;9.336;2022-08-06T14:28:42;29.00;43.00
37786;DHT22;23625;48.784;9.336;2022-08-06T14:31:08;29.00;43.20
37786;DHT22;23625;48.784;9.336;2022-08-06T14:33:34;28.80;42.90
37786;DHT22;23625;48.784;9.336;2022-08-06T14:35:59;28.60;42.90
37786;DHT22;23625;48.784;9.336;2022-08-06T14:38:25;28.20;43.90
37786;DHT22;23625;48.784;9.336;2022-08-06T14:40:51;28.10;43.70
37786;DHT22;23625;48.784;9.336;2022-08-06T14:43:35;28.00;44.10
37786;DHT22;23625;48.784;9.336;2022-08-06T14:46:19;27.90;44.00
37786;DHT22;23625;48.784;9.336;2022-08-06T14:48:45;27.80;43.70
37786;DHT22;23625;48.784;9.336;2022-08-06T14:51:10;27.60;43.40
37786;DHT22;23625;48.784;9.336;2022-08-06T14:53:36;27.50;43.90
37786;DHT22;23625;48.784;9.336;2022-08-06T14:56:02;27.50;44.20
37786;DHT22;23625;48.784;9.336;2022-08-06T14:58:27;27.60;44.00
37786;DHT22;23625;48.784;9.336;2022-08-06T15:00:53;27.80;44.70
37786;DHT22;23625;48.784;9.336;2022-08-06T15:03:19;27.90;44.30
37786;DHT22;23625;48.784;9.336;2022-08-06T15:05:45;27.70;43.90
37786;DHT22;23625;48.784;9.336;2022-08-06T15:08:11;27.60;44.60
37786;DHT22;23625;48.784;9.336;2022-08-06T15:10:37;27.80;44.20
37786;DHT22;23625;48.784;9.336;2022-08-06T15:13:04;27.90;43.90
37786;DHT22;23625;48.784;9.336;2022-08-06T15:15:31;28.10;44.00
37786;DHT22;23625;48.784;9.336;2022-08-06T15:18:18;28.10;43.00
37786;DHT22;23625;48.784;9.336;2022-08-06T15:20:44;28.00;43.90
37786;DHT22;23625;48.784;9.336;2022-08-06T15:23:10;27.90;43.20
37786;DHT22;23625;48.784;9.336;2022-08-06T15:25:35;27.90;43.40
37786;DHT22;23625;48.784;9.336;2022-08-06T15:28:01;28.10;43.90
37786;DHT22;23625;48.784;9.336;2022-08-06T15:30:26;28.20;42.50
37786;DHT22;23625;48.784;9.336;2022-08-06T15:32:52;28.20;42.70
37786;DHT22;23625;48.784;9.336;2022-08-06T15:35:19;28.30;42.40
37786;DHT22;23625;48.784;9.336;2022-08-06T15:37:45;28.30;42.50
37786;DHT22;23625;48.784;9.336;2022-08-06T15:40:11;28.30;42.20
37786;DHT22;23625;48.784;9.336;2022-08-06T15:42:36;28.00;43.10
37786;DHT22;23625;48.784;9.336;2022-08-06T15:45:03;27.90;43.60
37786;DHT22;23625;48.784;9.336;2022-08-06T15:47:28;27.70;43.50
37786;DHT22;23625;48.784;9.336;2022-08-06T15:49:56;27.70;43.70
37786;DHT22;23625;48.784;9.336;2022-08-06T15:52:21;27.70;43.80
37786;DHT22;23625;48.784;9.336;2022-08-06T15:54:47;27.70;43.70
37786;DHT22;23625;48.784;9.336;2022-08-06T15:57:13;27.60;43.50
37786;DHT22;23625;48.784;9.336;2022-08-06T15:59:41;27.60;43.20
37786;DHT22;23625;48.784;9.336;2022-08-06T16:02:07;27.70;43.40
37786;DHT22;23625;48.784;9.336;2022-08-06T16:04:32;27.80;43.60
37786;DHT22;23625;48.784;9.336;2022-08-06T16:06:58;28.20;43.70
37786;DHT22;23625;48.784;9.336;2022-08-06T16:09:24;28.40;43.50
37786;DHT22;23625;48.784;9.336;2022-08-06T16:11:49;28.60;43.30
37786;DHT22;23625;48.784;9.336;2022-08-06T16:14:15;28.70;42.40
37786;DHT22;23625;48.784;9.336;2022-08-06T16:16:40;29.00;41.90
37786;DHT22;23625;48.784;9.336;2022-08-06T16:19:06;29.00;41.60
37786;DHT22;23625;48.784;9.336;2022-08-06T16:21:32;28.80;41.90
37786;DHT22;23625;48.784;9.336;2022-08-06T16:23:58;28.60;42.10
37786;DHT22;23625;48.784;9.336;2022-08-06T16:26:25;28.70;42.00
37786;DHT22;23625;48.784;9.336;2022-08-06T16:28:51;28.90;41.50
37786;DHT22;23625;48.784;9.336;2022-08-06T16:31:17;28.80;41.20
37786;DHT22;23625;48.784;9.336;2022-08-06T16:33:42;28.90;41.30
37786;DHT22;23625;48.784;9.336;2022-08-06T16:36:08;29.00;41.20
37786;DHT22;23625;48.784;9.336;2022-08-06T16:38:33;29.30;41.40
37786;DHT22;23625;48.784;9.336;2022-08-06T16:40:59;29.40;40.80
37786;DHT22;23625;48.784;9.336;2022-08-06T16:43:25;29.40;40.90
37786;DHT22;23625;48.784;9.336;2022-08-06T16:45:51;29.30;40.40
37786;DHT22;23625;48.784;9.336;2022-08-06T16:48:17;29.20;40.70
37786;DHT22;23625;48.784;9.336;2022-08-06T16:50:42;29.20;40.90
37786;DHT22;23625;48.784;9.336;2022-08-06T16:53:09;29.20;41.00
37786;DHT22;23625;48.784;9.336;2022-08-06T16:55:35;29.20;40.80
37786;DHT22;23625;48.784;9.336;2022-08-06T16:58:01;29.20;40.60